Home > Products > Valid Products > TAF

000
FTUS43 KOAX 162322
TAFLNK
TAF
KLNK 162322Z 1700/1724 15008KT P6SM OVC040
     FM170600 VRB03KT P6SM SCT040
     FM171000 VRB03KT 4SM BR SCT020
      TEMPO 1711/1714 1 1/2SM BR BKN020
     FM171500 15006KT P6SM BKN030
     FM171900 13008KT P6SM BKN040=



000
FTUS43 KOAX 162322
TAFOFK
TAF
KOFK 162322Z 1700/1724 18009KT P6SM BKN040
     FM170400 VRB03KT P6SM SCT040
     FM171000 VRB03KT 4SM BR SKC
      TEMPO 1711/1714 1 1/2SM BR
     FM171500 VRB03KT P6SM SCT250
     FM171800 10006KT P6SM BKN040=



000
FTUS43 KOAX 162322
TAFOMA
TAF
KOMA 162322Z 1700/1724 15007KT P6SM SCT100
     FM170200 14005KT P6SM BKN040
     FM170900 VRB03KT 4SM BR SCT015
      TEMPO 1710/1714 1/2SM FG BKN004
     FM171600 15006KT P6SM SCT025
     FM171900 15007KT P6SM BKN040=



000
FTUS43 KOAX 162322
TAFOMA
TAF
KOMA 162322Z 1700/1724 15007KT P6SM SCT100
     FM170200 14005KT P6SM BKN040
     FM170900 VRB03KT 4SM BR SCT015
      TEMPO 1710/1714 1/2SM FG BKN004
     FM171600 15006KT P6SM SCT025
     FM171900 15007KT P6SM BKN040=



000
FTUS43 KOAX 162322
TAFLNK
TAF
KLNK 162322Z 1700/1724 15008KT P6SM OVC040
     FM170600 VRB03KT P6SM SCT040
     FM171000 VRB03KT 4SM BR SCT020
      TEMPO 1711/1714 1 1/2SM BR BKN020
     FM171500 15006KT P6SM BKN030
     FM171900 13008KT P6SM BKN040=



000
FTUS43 KOAX 162322
TAFOFK
TAF
KOFK 162322Z 1700/1724 18009KT P6SM BKN040
     FM170400 VRB03KT P6SM SCT040
     FM171000 VRB03KT 4SM BR SKC
      TEMPO 1711/1714 1 1/2SM BR
     FM171500 VRB03KT P6SM SCT250
     FM171800 10006KT P6SM BKN040=



000
FTUS43 KOAX 162146 AAA
TAFLNK
TAF AMD
KLNK 162146Z 1622/1718 17006KT P6SM SKC
     FM162200 16007KT P6SM BKN040
     FM170600 VRB03KT P6SM SCT040
     FM171100 VRB03KT 4SM BR FEW250
     FM171200 VRB03KT 2SM BR SCT250
     FM171300 VRB03KT 4SM BR FEW250
     FM171500 13006KT P6SM SKC=



000
FTUS43 KOAX 162146 AAA
TAFLNK
TAF AMD
KLNK 162146Z 1622/1718 17006KT P6SM SKC
     FM162200 16007KT P6SM BKN040
     FM170600 VRB03KT P6SM SCT040
     FM171100 VRB03KT 4SM BR FEW250
     FM171200 VRB03KT 2SM BR SCT250
     FM171300 VRB03KT 4SM BR FEW250
     FM171500 13006KT P6SM SKC=



000
FTUS43 KOAX 161734
TAFOFK
TAF
KOFK 161734Z 1618/1718 19013G19KT P6SM SKC
     FM162200 19006KT P6SM BKN035
     FM170400 20006KT P6SM SCT250
     FM171100 VRB05KT 4SM BR SKC
     FM171200 VRB05KT 1/2SM FG SKC
     FM171300 VRB05KT 1 1/2SM BR SKC
     FM171400 VRB05KT 4SM BR SKC
     FM171500 16007KT P6SM BKN250=



000
FTUS43 KOAX 161734
TAFOMA
TAF
KOMA 161734Z 1618/1718 16007KT P6SM SKC
     FM170400 VRB03KT P6SM BKN035
     FM171100 VRB03KT 4SM BR SKC
     FM171200 VRB03KT 1 1/2SM BR SKC
     FM171300 16007KT 4SM BR SKC
     FM171500 16007KT P6SM FEW250=



000
FTUS43 KOAX 161734
TAFLNK
TAF
KLNK 161734Z 1618/1718 17006KT P6SM SKC
     FM170200 VRB03KT P6SM BKN035
     FM171100 VRB03KT 4SM BR FEW250
     FM171200 VRB03KT 2SM BR SCT250
     FM171300 VRB03KT 4SM BR FEW250
     FM171500 13006KT P6SM SKC=



000
FTUS43 KOAX 161734
TAFOFK
TAF
KOFK 161734Z 1618/1718 19013G19KT P6SM SKC
     FM162200 19006KT P6SM BKN035
     FM170400 20006KT P6SM SCT250
     FM171100 VRB05KT 4SM BR SKC
     FM171200 VRB05KT 1/2SM FG SKC
     FM171300 VRB05KT 1 1/2SM BR SKC
     FM171400 VRB05KT 4SM BR SKC
     FM171500 16007KT P6SM BKN250=



000
FTUS43 KOAX 161734
TAFLNK
TAF
KLNK 161734Z 1618/1718 17006KT P6SM SKC
     FM170200 VRB03KT P6SM BKN035
     FM171100 VRB03KT 4SM BR FEW250
     FM171200 VRB03KT 2SM BR SCT250
     FM171300 VRB03KT 4SM BR FEW250
     FM171500 13006KT P6SM SKC=



000
FTUS43 KOAX 161734
TAFOMA
TAF
KOMA 161734Z 1618/1718 16007KT P6SM SKC
     FM170400 VRB03KT P6SM BKN035
     FM171100 VRB03KT 4SM BR SKC
     FM171200 VRB03KT 1 1/2SM BR SKC
     FM171300 16007KT 4SM BR SKC
     FM171500 16007KT P6SM FEW250=



000
FTUS43 KOAX 161120
TAFOFK
TAF
KOFK 161120Z 1612/1712 18007KT P6SM SCT070
      TEMPO 1612/1614 5SM BR
     FM161500 18012KT P6SM SCT050
      TEMPO 1615/1619 BKN050
     FM161900 18013G21KT P6SM SCT040
     FM170000 16010KT P6SM FEW040 SCT250
      TEMPO 1709/1712 4SM BR=



000
FTUS43 KOAX 161120
TAFOMA
TAF
KOMA 161120Z 1612/1712 16003KT 2SM BR SCT003
      TEMPO 1612/1614 1/2SM FG BKN003
     FM161500 17006KT P6SM SCT010
     FM161700 17008KT P6SM SCT070
      TEMPO 1618/1621 BKN070
     FM170000 15008KT P6SM SCT250
      TEMPO 1709/1712 3SM BR=



000
FTUS43 KOAX 161120
TAFLNK
TAF
KLNK 161120Z 1612/1712 17003KT P6SM SCT009
      TEMPO 1612/1614 4SM BR
     FM161500 17009KT P6SM SCT025
     FM161800 18013KT P6SM SCT050 BKN100
     FM162300 17007KT P6SM SCT250
      TEMPO 1709/1712 4SM BR=



000
FTUS43 KOAX 161120
TAFLNK
TAF
KLNK 161120Z 1612/1712 17003KT P6SM SCT009
      TEMPO 1612/1614 4SM BR
     FM161500 17009KT P6SM SCT025
     FM161800 18013KT P6SM SCT050 BKN100
     FM162300 17007KT P6SM SCT250
      TEMPO 1709/1712 4SM BR=



000
FTUS43 KOAX 161120
TAFOMA
TAF
KOMA 161120Z 1612/1712 16003KT 2SM BR SCT003
      TEMPO 1612/1614 1/2SM FG BKN003
     FM161500 17006KT P6SM SCT010
     FM161700 17008KT P6SM SCT070
      TEMPO 1618/1621 BKN070
     FM170000 15008KT P6SM SCT250
      TEMPO 1709/1712 3SM BR=



000
FTUS43 KOAX 161120
TAFOFK
TAF
KOFK 161120Z 1612/1712 18007KT P6SM SCT070
      TEMPO 1612/1614 5SM BR
     FM161500 18012KT P6SM SCT050
      TEMPO 1615/1619 BKN050
     FM161900 18013G21KT P6SM SCT040
     FM170000 16010KT P6SM FEW040 SCT250
      TEMPO 1709/1712 4SM BR=



000
FTUS43 KOAX 160941 AAA
TAFOFK
TAF AMD
KOFK 160941Z 1610/1706 17004KT P6SM SCT007
      TEMPO 1610/1614 3SM BR
     FM161500 18009KT P6SM SCT035
     FM161800 18013KT P6SM SCT040 SCT100
     FM170000 16007KT P6SM SCT040 BKN250=



000
FTUS43 KOAX 160941 AAA
TAFOFK
TAF AMD
KOFK 160941Z 1610/1706 17004KT P6SM SCT007
      TEMPO 1610/1614 3SM BR
     FM161500 18009KT P6SM SCT035
     FM161800 18013KT P6SM SCT040 SCT100
     FM170000 16007KT P6SM SCT040 BKN250=



000
FTUS43 KOAX 160900 AAD
TAFOMA
TAF AMD
KOMA 160900Z 1609/1706 VRB03KT 2SM BR SCT002
      TEMPO 1610/1612 1/2SM FG BKN002
     FM161200 16003KT 2SM BR BKN005
      TEMPO 1612/1614 1/2SM FG
     FM161500 17005KT P6SM SCT010
     FM161800 17008KT P6SM SCT040 SCT100
     FM170000 15005KT P6SM BKN250=



000
FTUS43 KOAX 160900 AAD
TAFOMA
TAF AMD
KOMA 160900Z 1609/1706 VRB03KT 2SM BR SCT002
      TEMPO 1610/1612 1/2SM FG BKN002
     FM161200 16003KT 2SM BR BKN005
      TEMPO 1612/1614 1/2SM FG
     FM161500 17005KT P6SM SCT010
     FM161800 17008KT P6SM SCT040 SCT100
     FM170000 15005KT P6SM BKN250=



000
FTUS43 KOAX 160811 AAC
TAFOMA
TAF AMD
KOMA 160811Z 1608/1706 VRB03KT 2SM BR SCT002
      TEMPO 1608/1612 1/2SM FG BKN002
     FM161200 16003KT 2SM BR BKN005
      TEMPO 1612/1614 1/2SM FG
     FM161500 17005KT P6SM SCT010
     FM161800 17008KT P6SM SCT040 SCT100
     FM170000 15005KT P6SM BKN250=



000
FTUS43 KOAX 160811 AAC
TAFOMA
TAF AMD
KOMA 160811Z 1608/1706 VRB03KT 2SM BR SCT002
      TEMPO 1608/1612 1/2SM FG BKN002
     FM161200 16003KT 2SM BR BKN005
      TEMPO 1612/1614 1/2SM FG
     FM161500 17005KT P6SM SCT010
     FM161800 17008KT P6SM SCT040 SCT100
     FM170000 15005KT P6SM BKN250=



000
FTUS43 KOAX 160802 AAB
TAFOMA
TAF AMD
KOMA 160802Z 1608/1706 VRB03KT 2SM BR SCT005
      TEMPO 1610/1614 1/2SM FG BKN005
     FM161500 17005KT P6SM SCT010
     FM161800 17008KT P6SM SCT040 SCT100
     FM170000 15005KT P6SM BKN250=



000
FTUS43 KOAX 160802 AAB
TAFOMA
TAF AMD
KOMA 160802Z 1608/1706 VRB03KT 2SM BR SCT005
      TEMPO 1610/1614 1/2SM FG BKN005
     FM161500 17005KT P6SM SCT010
     FM161800 17008KT P6SM SCT040 SCT100
     FM170000 15005KT P6SM BKN250=



000
FTUS43 KOAX 160657 AAA
TAFOMA
TAF AMD
KOMA 160657Z 1607/1706 VRB03KT 4SM BR SCT005
      TEMPO 1610/1614 1/2SM FG
     FM161500 17005KT P6SM SCT010
     FM161800 17008KT P6SM SCT040 SCT100
     FM170000 15005KT P6SM BKN250=



000
FTUS43 KOAX 160657 AAA
TAFOMA
TAF AMD
KOMA 160657Z 1607/1706 VRB03KT 4SM BR SCT005
      TEMPO 1610/1614 1/2SM FG
     FM161500 17005KT P6SM SCT010
     FM161800 17008KT P6SM SCT040 SCT100
     FM170000 15005KT P6SM BKN250=



000
FTUS43 KOAX 160520
TAFLNK
TAF
KLNK 160520Z 1606/1706 VRB03KT P6SM SKC
      TEMPO 1611/1614 3SM BR SCT015
     FM161500 19006KT P6SM SCT025
     FM161800 18009KT P6SM SCT040 SCT100
     FM170000 15005KT P6SM BKN250=



000
FTUS43 KOAX 160520
TAFOFK
TAF
KOFK 160520Z 1606/1706 VRB03KT P6SM SKC
      TEMPO 1607/1610 5SM BR
     FM161000 17004KT 5SM BR SCT007
      TEMPO 1610/1614 2SM BR BKN025
     FM161500 19007KT P6SM SCT035
     FM161800 18012KT P6SM SCT250
     FM170000 16007KT P6SM BKN250=



000
FTUS43 KOAX 160520
TAFOMA
TAF
KOMA 160520Z 1606/1706 VRB03KT P6SM SKC
      TEMPO 1607/1610 4SM BR
     FM161000 16003KT 4SM BR SKC
      TEMPO 1610/1614 3/4SM BR
     FM161500 17005KT P6SM SKC
     FM161800 17008KT P6SM SCT040 SCT100
     FM170000 15005KT P6SM BKN250=



000
FTUS43 KOAX 160520
TAFLNK
TAF
KLNK 160520Z 1606/1706 VRB03KT P6SM SKC
      TEMPO 1611/1614 3SM BR SCT015
     FM161500 19006KT P6SM SCT025
     FM161800 18009KT P6SM SCT040 SCT100
     FM170000 15005KT P6SM BKN250=



000
FTUS43 KOAX 160520
TAFOMA
TAF
KOMA 160520Z 1606/1706 VRB03KT P6SM SKC
      TEMPO 1607/1610 4SM BR
     FM161000 16003KT 4SM BR SKC
      TEMPO 1610/1614 3/4SM BR
     FM161500 17005KT P6SM SKC
     FM161800 17008KT P6SM SCT040 SCT100
     FM170000 15005KT P6SM BKN250=



000
FTUS43 KOAX 160520
TAFOFK
TAF
KOFK 160520Z 1606/1706 VRB03KT P6SM SKC
      TEMPO 1607/1610 5SM BR
     FM161000 17004KT 5SM BR SCT007
      TEMPO 1610/1614 2SM BR BKN025
     FM161500 19007KT P6SM SCT035
     FM161800 18012KT P6SM SCT250
     FM170000 16007KT P6SM BKN250=



000
FTUS43 KOAX 152320
TAFOFK
TAF
KOFK 152320Z 1600/1624 VRB03KT P6SM SKC
     FM161300 18007KT P6SM BKN015
     FM161700 18012KT P6SM BKN250=



000
FTUS43 KOAX 152320
TAFOMA
TAF
KOMA 152320Z 1600/1624 VRB03KT P6SM SCT045
      TEMPO 1610/1614 3/4SM BR
     FM161400 18007KT P6SM SCT015
     FM161800 17007KT P6SM SCT040=



000
FTUS43 KOAX 152320
TAFLNK
TAF
KLNK 152320Z 1600/1624 03005KT P6SM SKC
     FM160200 VRB03KT P6SM SKC
      TEMPO 1611/1614 2SM BR SCT005
     FM161500 19006KT P6SM SCT015
     FM161800 18009KT P6SM BKN250=



000
FTUS43 KOAX 152320
TAFLNK
TAF
KLNK 152320Z 1600/1624 03005KT P6SM SKC
     FM160200 VRB03KT P6SM SKC
      TEMPO 1611/1614 2SM BR SCT005
     FM161500 19006KT P6SM SCT015
     FM161800 18009KT P6SM BKN250=



000
FTUS43 KOAX 152320
TAFOMA
TAF
KOMA 152320Z 1600/1624 VRB03KT P6SM SCT045
      TEMPO 1610/1614 3/4SM BR
     FM161400 18007KT P6SM SCT015
     FM161800 17007KT P6SM SCT040=



000
FTUS43 KOAX 152320
TAFOFK
TAF
KOFK 152320Z 1600/1624 VRB03KT P6SM SKC
     FM161300 18007KT P6SM BKN015
     FM161700 18012KT P6SM BKN250=



000
FTUS43 KOAX 151750 AAA
TAFOMA
TAF AMD
KOMA 151750Z 1518/1618 01011G19KT P6SM SCT028 BKN035
     FM152300 VRB03KT P6SM SKC
      TEMPO 1610/1613 4SM BR
     FM161500 16006KT P6SM BKN120=



000
FTUS43 KOAX 151750 AAA
TAFOMA
TAF AMD
KOMA 151750Z 1518/1618 01011G19KT P6SM SCT028 BKN035
     FM152300 VRB03KT P6SM SKC
      TEMPO 1610/1613 4SM BR
     FM161500 16006KT P6SM BKN120=



000
FTUS43 KOAX 151720
TAFOMA
TAF
KOMA 151720Z 1518/1618 01011G19KT P6SM SCT025 SCT040
      TEMPO 1518/1519 BKN025
     FM160000 VRB03KT P6SM SKC
      TEMPO 1610/1613 4SM BR
     FM161500 16006KT P6SM BKN120=



000
FTUS43 KOAX 151720
TAFLNK
TAF
KLNK 151720Z 1518/1618 02014KT P6SM SCT030
      TEMPO 1518/1519 BKN025
     FM160000 VRB03KT P6SM SKC
     FM161200 19006KT P6SM BKN120=



000
FTUS43 KOAX 151720
TAFOFK
TAF
KOFK 151720Z 1518/1618 36012G20KT P6SM SCT025
     FM152300 VRB03KT P6SM SKC
     FM161000 19006KT P6SM BKN120=



000
FTUS43 KOAX 151720
TAFOMA
TAF
KOMA 151720Z 1518/1618 01011G19KT P6SM SCT025 SCT040
      TEMPO 1518/1519 BKN025
     FM160000 VRB03KT P6SM SKC
      TEMPO 1610/1613 4SM BR
     FM161500 16006KT P6SM BKN120=



000
FTUS43 KOAX 151720
TAFLNK
TAF
KLNK 151720Z 1518/1618 02014KT P6SM SCT030
      TEMPO 1518/1519 BKN025
     FM160000 VRB03KT P6SM SKC
     FM161200 19006KT P6SM BKN120=



000
FTUS43 KOAX 151720
TAFOFK
TAF
KOFK 151720Z 1518/1618 36012G20KT P6SM SCT025
     FM152300 VRB03KT P6SM SKC
     FM161000 19006KT P6SM BKN120=



000
FTUS43 KOAX 151520 AAB
TAFOMA
TAF AMD
KOMA 151520Z 1515/1612 01012G20KT P6SM SCT018 BKN028
      TEMPO 1515/1516 BKN018
     FM151700 36014KT P6SM SCT040
     FM160000 VRB03KT P6SM SKC=



000
FTUS43 KOAX 151520 AAB
TAFOMA
TAF AMD
KOMA 151520Z 1515/1612 01012G20KT P6SM SCT018 BKN028
      TEMPO 1515/1516 BKN018
     FM151700 36014KT P6SM SCT040
     FM160000 VRB03KT P6SM SKC=



000
FTUS43 KOAX 151504 AAB
TAFOFK
TAF AMD
KOFK 151504Z 1515/1612 02011KT P6SM SCT018
      TEMPO 1516/1518 BKN018
     FM152300 VRB03KT P6SM SKC=



000
FTUS43 KOAX 151504 AAB
TAFOFK
TAF AMD
KOFK 151504Z 1515/1612 02011KT P6SM SCT018
      TEMPO 1516/1518 BKN018
     FM152300 VRB03KT P6SM SKC=



000
FTUS43 KOAX 151412 AAA
TAFOMA
TAF AMD
KOMA 151412Z 1514/1612 36014G21KT P6SM SCT020 BKN035
      TEMPO 1514/1516 BKN020 OVC040
     FM151700 36014KT P6SM SCT040
     FM160000 VRB03KT P6SM SKC=



000
FTUS43 KOAX 151412 AAA
TAFOMA
TAF AMD
KOMA 151412Z 1514/1612 36014G21KT P6SM SCT020 BKN035
      TEMPO 1514/1516 BKN020 OVC040
     FM151700 36014KT P6SM SCT040
     FM160000 VRB03KT P6SM SKC=



000
FTUS43 KOAX 151411 AAA
TAFLNK
TAF AMD
KLNK 151411Z 1514/1612 36014G21KT P6SM SCT025 BKN040
      TEMPO 1514/1516 BKN025
     FM151700 01014KT P6SM SCT040
     FM160000 VRB03KT P6SM SKC=



000
FTUS43 KOAX 151314 AAA
TAFOFK
TAF AMD
KOFK 151314Z 1513/1612 36014G20KT P6SM BKN012 OVC060
      TEMPO 1515/1516 BKN025
     FM151600 01012KT P6SM SCT040
     FM152300 VRB03KT P6SM SKC=



000
FTUS43 KOAX 151314 AAA
TAFOFK
TAF AMD
KOFK 151314Z 1513/1612 36014G20KT P6SM BKN012 OVC060
      TEMPO 1515/1516 BKN025
     FM151600 01012KT P6SM SCT040
     FM152300 VRB03KT P6SM SKC=



000
FTUS43 KOAX 151123
TAFOFK
TAF
KOFK 151123Z 1512/1612 36014KT P6SM OVC040
      TEMPO 1512/1514 OVC025
     FM151500 01012KT P6SM SCT040
     FM152300 VRB03KT P6SM SKC=



000
FTUS43 KOAX 151123
TAFOMA
TAF
KOMA 151123Z 1512/1612 36014KT P6SM OVC035
      TEMPO 1512/1514 OVC025
     FM151700 36014KT P6SM SCT040
     FM160000 VRB03KT P6SM SKC=



000
FTUS43 KOAX 151123
TAFOFK
TAF
KOFK 151123Z 1512/1612 36014KT P6SM OVC040
      TEMPO 1512/1514 OVC025
     FM151500 01012KT P6SM SCT040
     FM152300 VRB03KT P6SM SKC=



000
FTUS43 KOAX 151123
TAFOMA
TAF
KOMA 151123Z 1512/1612 36014KT P6SM OVC035
      TEMPO 1512/1514 OVC025
     FM151700 36014KT P6SM SCT040
     FM160000 VRB03KT P6SM SKC=



000
FTUS43 KOAX 151123
TAFLNK
TAF
KLNK 151123Z 1512/1612 36014KT P6SM OVC025
     FM151500 36014KT P6SM OVC035
     FM151800 01014KT P6SM SCT040
     FM160000 VRB03KT P6SM SKC=



000
FTUS43 KOAX 151123
TAFLNK
TAF
KLNK 151123Z 1512/1612 36014KT P6SM OVC025
     FM151500 36014KT P6SM OVC035
     FM151800 01014KT P6SM SCT040
     FM160000 VRB03KT P6SM SKC=



000
FTUS43 KOAX 151024 AAA
TAFOFK
TAF AMD
KOFK 151024Z 1510/1606 35012KT P6SM OVC035
      TEMPO 1511/1514 OVC025
     FM151500 35012G18KT P6SM SCT020
     FM152100 01007KT P6SM SCT040
     FM152300 VRB03KT P6SM SKC=



000
FTUS43 KOAX 151024 AAA
TAFOFK
TAF AMD
KOFK 151024Z 1510/1606 35012KT P6SM OVC035
      TEMPO 1511/1514 OVC025
     FM151500 35012G18KT P6SM SCT020
     FM152100 01007KT P6SM SCT040
     FM152300 VRB03KT P6SM SKC=



000
FTUS43 KOAX 150909 AAB
TAFLNK
TAF AMD
KLNK 150909Z 1509/1606 08005KT P6SM OVC025
     FM151200 36014KT P6SM OVC035
     FM151600 01014KT P6SM SCT030
     FM160000 VRB03KT P6SM SKC=



000
FTUS43 KOAX 150909 AAB
TAFLNK
TAF AMD
KLNK 150909Z 1509/1606 08005KT P6SM OVC025
     FM151200 36014KT P6SM OVC035
     FM151600 01014KT P6SM SCT030
     FM160000 VRB03KT P6SM SKC=



000
FTUS43 KOAX 150715 AAA
TAFOMA
TAF AMD
KOMA 150715Z 1507/1606 13006KT P6SM -TSRA OVC050CB
     FM150800 10008KT P6SM OVC050
     FM151100 36012KT P6SM OVC025
     FM151600 36014KT P6SM SCT030
     FM160000 VRB03KT P6SM SKC=



000
FTUS43 KOAX 150712 AAA
TAFLNK
TAF AMD
KLNK 150712Z 1507/1606 06008KT P6SM OVC035
     FM151100 36014KT P6SM OVC025
     FM151600 01014KT P6SM SCT030
     FM160000 VRB03KT P6SM SKC=



000
FTUS43 KOAX 150712 AAA
TAFLNK
TAF AMD
KLNK 150712Z 1507/1606 06008KT P6SM OVC035
     FM151100 36014KT P6SM OVC025
     FM151600 01014KT P6SM SCT030
     FM160000 VRB03KT P6SM SKC=



000
FTUS43 KOAX 150520
TAFLNK
TAF
KLNK 150520Z 1506/1606 08007KT P6SM VCSH OVC045
      TEMPO 1506/1509 05007KT 3SM -TSRA BKN025CB
     FM151000 05007KT P6SM OVC035
      TEMPO 1510/1512 02008KT -SHRA BKN025
     FM151200 01012G18KT P6SM VCSH OVC015
     FM151600 01011G18KT P6SM SCT030
     FM160000 VRB03KT P6SM SKC=



000
FTUS43 KOAX 150520
TAFLNK
TAF
KLNK 150520Z 1506/1606 08007KT P6SM VCSH OVC045
      TEMPO 1506/1509 05007KT 3SM -TSRA BKN025CB
     FM151000 05007KT P6SM OVC035
      TEMPO 1510/1512 02008KT -SHRA BKN025
     FM151200 01012G18KT P6SM VCSH OVC015
     FM151600 01011G18KT P6SM SCT030
     FM160000 VRB03KT P6SM SKC=



000
FTUS43 KOAX 150520
TAFOMA
TAF
KOMA 150520Z 1506/1606 11006KT P6SM VCSH OVC045
      TEMPO 1507/1511 05007KT 3SM -TSRA BKN025CB
     FM151100 05007KT P6SM OVC035
      TEMPO 1511/1513 02008KT -SHRA BKN025
     FM151300 01012G18KT P6SM VCSH OVC015
     FM151600 01011G18KT P6SM SCT030
     FM160000 VRB03KT P6SM SKC=



000
FTUS43 KOAX 150520
TAFOFK
TAF
KOFK 150520Z 1506/1606 10008KT P6SM BKN040
      TEMPO 1507/1510 02008KT P6SM BKN035
     FM151000 36012G20KT P6SM OVC025
      TEMPO 1510/1514 36006KT 6SM -SHRA BKN015
     FM151400 35012G18KT P6SM SCT020
     FM152100 01007KT P6SM SCT040
     FM152300 VRB03KT P6SM SKC=



000
FTUS43 KOAX 150520
TAFOMA
TAF
KOMA 150520Z 1506/1606 11006KT P6SM VCSH OVC045
      TEMPO 1507/1511 05007KT 3SM -TSRA BKN025CB
     FM151100 05007KT P6SM OVC035
      TEMPO 1511/1513 02008KT -SHRA BKN025
     FM151300 01012G18KT P6SM VCSH OVC015
     FM151600 01011G18KT P6SM SCT030
     FM160000 VRB03KT P6SM SKC=



000
FTUS43 KOAX 150520
TAFOFK
TAF
KOFK 150520Z 1506/1606 10008KT P6SM BKN040
      TEMPO 1507/1510 02008KT P6SM BKN035
     FM151000 36012G20KT P6SM OVC025
      TEMPO 1510/1514 36006KT 6SM -SHRA BKN015
     FM151400 35012G18KT P6SM SCT020
     FM152100 01007KT P6SM SCT040
     FM152300 VRB03KT P6SM SKC=



000
FTUS43 KOAX 142320
TAFOFK
TAF
KOFK 142320Z 1500/1524 VRB06KT P6SM BKN040
      TEMPO 1507/1511 36006KT 5SM -SHRA BKN015
     FM151100 36012G20KT P6SM OVC015
     FM151500 35011G18KT P6SM SCT030
     FM152200 01007KT P6SM SKC=



000
FTUS43 KOAX 142320
TAFLNK
TAF
KLNK 142320Z 1500/1524 13007KT P6SM BKN040
      TEMPO 1504/1508 3SM -TSRA BKN025CB
     FM150800 03008KT 5SM -SHRA BKN030
     FM151200 01012KT 6SM -SHRA OVC015
     FM151600 01011G18KT P6SM SCT030
     FM152200 01007KT P6SM SKC=



000
FTUS43 KOAX 142320
TAFOMA
TAF
KOMA 142320Z 1500/1524 14008KT P6SM BKN050
     FM150300 11006KT P6SM BKN040
      TEMPO 1506/1510 3SM -TSRA BKN025CB
     FM151000 02007KT 5SM -SHRA OVC025
     FM151200 01012KT 6SM -SHRA OVC015
     FM151600 01011G18KT P6SM SCT030
     FM152200 01007KT P6SM SKC=



000
FTUS43 KOAX 142320
TAFOMA
TAF
KOMA 142320Z 1500/1524 14008KT P6SM BKN050
     FM150300 11006KT P6SM BKN040
      TEMPO 1506/1510 3SM -TSRA BKN025CB
     FM151000 02007KT 5SM -SHRA OVC025
     FM151200 01012KT 6SM -SHRA OVC015
     FM151600 01011G18KT P6SM SCT030
     FM152200 01007KT P6SM SKC=



000
FTUS43 KOAX 142320
TAFLNK
TAF
KLNK 142320Z 1500/1524 13007KT P6SM BKN040
      TEMPO 1504/1508 3SM -TSRA BKN025CB
     FM150800 03008KT 5SM -SHRA BKN030
     FM151200 01012KT 6SM -SHRA OVC015
     FM151600 01011G18KT P6SM SCT030
     FM152200 01007KT P6SM SKC=



000
FTUS43 KOAX 142320
TAFOFK
TAF
KOFK 142320Z 1500/1524 VRB06KT P6SM BKN040
      TEMPO 1507/1511 36006KT 5SM -SHRA BKN015
     FM151100 36012G20KT P6SM OVC015
     FM151500 35011G18KT P6SM SCT030
     FM152200 01007KT P6SM SKC=



000
FTUS43 KOAX 141959 AAA
TAFLNK
TAF AMD
KLNK 141959Z 1420/1518 14010KT P6SM SCT050
     FM150000 13007KT P6SM BKN040
      TEMPO 1504/1508 3SM -TSRA BKN025CB
     FM150800 03008KT 5SM -SHRA BKN030
     FM151400 36013G20KT P6SM SCT030
      TEMPO 1514/1516 BKN025=



000
FTUS43 KOAX 141959 AAA
TAFLNK
TAF AMD
KLNK 141959Z 1420/1518 14010KT P6SM SCT050
     FM150000 13007KT P6SM BKN040
      TEMPO 1504/1508 3SM -TSRA BKN025CB
     FM150800 03008KT 5SM -SHRA BKN030
     FM151400 36013G20KT P6SM SCT030
      TEMPO 1514/1516 BKN025=



000
FTUS43 KOAX 141720
TAFOFK
TAF
KOFK 141720Z 1418/1518 12006KT P6SM BKN120
     FM150000 VRB05KT P6SM BKN070 PROB30 1504/1510 5SM -SHRA BKN030
     FM151100 36012G20KT P6SM OVC015
     FM151700 35011G18KT P6SM SCT030=



000
FTUS43 KOAX 141720
TAFOMA
TAF
KOMA 141720Z 1418/1518 16008KT P6SM SCT100
     FM150300 09006KT P6SM BKN035
      TEMPO 1506/1510 3SM -TSRA BKN025CB
     FM151000 36013KT 5SM -SHRA BKN025
     FM151400 01012KT P6SM SCT030
      TEMPO 1514/1516 BKN025=



000
FTUS43 KOAX 141720
TAFLNK
TAF
KLNK 141720Z 1418/1518 18010KT P6SM SCT050
     FM150000 13007KT P6SM BKN040
      TEMPO 1504/1508 3SM -TSRA BKN025CB
     FM150800 03008KT 5SM -SHRA BKN030
     FM151400 36013G20KT P6SM SCT030
      TEMPO 1514/1516 BKN025=



000
FTUS43 KOAX 141720
TAFOFK
TAF
KOFK 141720Z 1418/1518 12006KT P6SM BKN120
     FM150000 VRB05KT P6SM BKN070 PROB30 1504/1510 5SM -SHRA BKN030
     FM151100 36012G20KT P6SM OVC015
     FM151700 35011G18KT P6SM SCT030=



000
FTUS43 KOAX 141720
TAFLNK
TAF
KLNK 141720Z 1418/1518 18010KT P6SM SCT050
     FM150000 13007KT P6SM BKN040
      TEMPO 1504/1508 3SM -TSRA BKN025CB
     FM150800 03008KT 5SM -SHRA BKN030
     FM151400 36013G20KT P6SM SCT030
      TEMPO 1514/1516 BKN025=



000
FTUS43 KOAX 141720
TAFOMA
TAF
KOMA 141720Z 1418/1518 16008KT P6SM SCT100
     FM150300 09006KT P6SM BKN035
      TEMPO 1506/1510 3SM -TSRA BKN025CB
     FM151000 36013KT 5SM -SHRA BKN025
     FM151400 01012KT P6SM SCT030
      TEMPO 1514/1516 BKN025=



000
FTUS43 KOAX 141120
TAFOFK
TAF
KOFK 141120Z 1412/1512 20005KT P6SM SKC
     FM141700 15008KT P6SM BKN150
     FM150200 13006KT P6SM BKN040 PROB30 1502/1508 09005KT -SHRA
     FM150800 02010KT P6SM OVC025 PROB30 1508/1512 5SM -SHRA=



000
FTUS43 KOAX 141120
TAFLNK
TAF
KLNK 141120Z 1412/1512 17005KT P6SM SKC
     FM141700 17012KT P6SM BKN150
     FM150100 11006KT P6SM BKN040 PROB30 1503/1506 09005KT -SHRA
     FM150600 09006KT P6SM BKN035
      TEMPO 1506/1510 3SM -TSRA BKN025CB
     FM151000 02013KT 5SM -SHRA BKN040=



000
FTUS43 KOAX 141120
TAFOMA
TAF
KOMA 141120Z 1412/1512 17005KT P6SM SKC
     FM141700 17009KT P6SM BKN150
     FM150100 11006KT P6SM BKN040 PROB30 1503/1506 09005KT -SHRA
     FM150600 09006KT P6SM BKN035
      TEMPO 1506/1510 3SM -TSRA BKN025CB
     FM151000 02013KT 5SM -SHRA BKN040=



000
FTUS43 KOAX 141120
TAFOFK
TAF
KOFK 141120Z 1412/1512 20005KT P6SM SKC
     FM141700 15008KT P6SM BKN150
     FM150200 13006KT P6SM BKN040 PROB30 1502/1508 09005KT -SHRA
     FM150800 02010KT P6SM OVC025 PROB30 1508/1512 5SM -SHRA=



000
FTUS43 KOAX 141120
TAFLNK
TAF
KLNK 141120Z 1412/1512 17005KT P6SM SKC
     FM141700 17012KT P6SM BKN150
     FM150100 11006KT P6SM BKN040 PROB30 1503/1506 09005KT -SHRA
     FM150600 09006KT P6SM BKN035
      TEMPO 1506/1510 3SM -TSRA BKN025CB
     FM151000 02013KT 5SM -SHRA BKN040=



000
FTUS43 KOAX 141120
TAFOMA
TAF
KOMA 141120Z 1412/1512 17005KT P6SM SKC
     FM141700 17009KT P6SM BKN150
     FM150100 11006KT P6SM BKN040 PROB30 1503/1506 09005KT -SHRA
     FM150600 09006KT P6SM BKN035
      TEMPO 1506/1510 3SM -TSRA BKN025CB
     FM151000 02013KT 5SM -SHRA BKN040=



000
FTUS43 KOAX 140520
TAFOFK
TAF
KOFK 140520Z 1406/1506 20005KT P6SM SKC
     FM141700 15008KT P6SM BKN150
     FM142200 13006KT P6SM BKN040 PROB30 1501/1505 09005KT -SHRA=



000
FTUS43 KOAX 140520
TAFLNK
TAF
KLNK 140520Z 1406/1506 17006KT P6SM BKN060
     FM140800 17005KT P6SM SKC
     FM141700 17012KT P6SM BKN150
     FM150000 13006KT P6SM BKN040 PROB30 1504/1506 09005KT -SHRA=



000
FTUS43 KOAX 140520
TAFLNK
TAF
KLNK 140520Z 1406/1506 17006KT P6SM BKN060
     FM140800 17005KT P6SM SKC
     FM141700 17012KT P6SM BKN150
     FM150000 13006KT P6SM BKN040 PROB30 1504/1506 09005KT -SHRA=



000
FTUS43 KOAX 140520
TAFOFK
TAF
KOFK 140520Z 1406/1506 20005KT P6SM SKC
     FM141700 15008KT P6SM BKN150
     FM142200 13006KT P6SM BKN040 PROB30 1501/1505 09005KT -SHRA=



000
FTUS43 KOAX 140520
TAFOMA
TAF
KOMA 140520Z 1406/1506 17006KT P6SM BKN060
     FM140800 17005KT P6SM SKC
     FM141700 17009KT P6SM BKN150
     FM142300 13006KT P6SM BKN040 PROB30 1503/1506 09005KT -SHRA=



000
FTUS43 KOAX 140520
TAFOMA
TAF
KOMA 140520Z 1406/1506 17006KT P6SM BKN060
     FM140800 17005KT P6SM SKC
     FM141700 17009KT P6SM BKN150
     FM142300 13006KT P6SM BKN040 PROB30 1503/1506 09005KT -SHRA=



    US Dept of Commerce
    National Oceanic and Atmospheric Administration
    National Weather Service
    1325 East West Highway
    Silver Spring, MD 20910
    Page Author: NWS Internet Services Team
Disclaimer
Information Quality
Credits
Glossary
Privacy Policy
Freedom of Information Act (FOIA)
About Us
Career Opportunities